Time;durP1;ratioP1;P1;durP2;ratioP2;P2;SDS_P1;SDS_P2;PMS_P1;PMS_P2;Temp;Humidity;BMP_temperature;BMP_pressure;BME280_temperature;BME280_humidity;BME280_pressure;Samples;Min_cycle;Max_cycle;Signal;HPM_P1;HPM_P2
2022/08/02 00:02:20;;;;;;;4.85;3.08;;;28.30;99.90;;;;;;5035000;28;20398;-49
2022/08/02 00:04:46;;;;;;;9.13;2.95;;;28.30;99.90;;;;;;5035337;28;20370;-49
2022/08/02 00:07:14;;;;;;;7.10;3.00;;;28.30;99.90;;;;;;5033653;28;20142;-49
2022/08/02 00:09:40;;;;;;;6.07;2.42;;;28.30;99.90;;;;;;5034917;28;20037;-50
2022/08/02 00:12:06;;;;;;;5.50;3.00;;;28.20;99.90;;;;;;5034895;28;20025;-49
2022/08/02 00:14:32;;;;;;;7.25;2.60;;;28.30;99.90;;;;;;5034613;28;20029;-49
2022/08/02 00:16:58;;;;;;;4.72;2.38;;;28.20;99.90;;;;;;5034698;28;20076;-50
2022/08/02 00:19:24;;;;;;;4.57;2.50;;;28.20;99.90;;;;;;5034848;28;20388;-49
2022/08/02 00:21:50;;;;;;;3.40;2.30;;;28.20;99.90;;;;;;5034808;28;20029;-49
2022/08/02 00:24:16;;;;;;;6.13;2.80;;;28.20;99.90;;;;;;5034956;28;20025;-49
2022/08/02 00:26:41;;;;;;;3.65;2.58;;;28.20;99.90;;;;;;5034760;28;20021;-49
2022/08/02 00:29:07;;;;;;;4.93;2.47;;;28.20;99.90;;;;;;5034680;28;20124;-49
2022/08/02 00:31:33;;;;;;;6.82;2.80;;;28.10;99.90;;;;;;5034581;28;20529;-49
2022/08/02 00:33:59;;;;;;;5.85;2.75;;;28.10;99.90;;;;;;5034526;28;20354;-49
2022/08/02 00:36:24;;;;;;;4.03;2.65;;;28.10;99.90;;;;;;5034471;28;20060;-49
2022/08/02 00:38:50;;;;;;;4.05;2.67;;;28.10;99.90;;;;;;5034460;28;20504;-49
2022/08/02 00:41:20;;;;;;;6.45;2.78;;;28.10;99.90;;;;;;5034484;28;20033;-49
2022/08/02 00:43:48;;;;;;;6.45;3.00;;;28.10;99.90;;;;;;5034424;28;20389;-49
2022/08/02 00:46:15;;;;;;;6.72;2.15;;;28.10;99.90;;;;;;5034444;28;20025;-49
2022/08/02 00:48:41;;;;;;;9.02;3.03;;;28.00;99.90;;;;;;5034308;28;20084;-49
2022/08/02 00:51:07;;;;;;;5.63;2.45;;;28.00;99.90;;;;;;5034383;28;20021;-49
2022/08/02 00:53:33;;;;;;;6.45;2.97;;;28.00;99.90;;;;;;5034234;28;20604;-49
2022/08/02 00:55:59;;;;;;;6.90;2.80;;;28.00;99.90;;;;;;5034060;28;20035;-49
2022/08/02 00:58:25;;;;;;;5.35;2.80;;;28.00;99.90;;;;;;5034017;28;20033;-49
2022/08/02 01:00:51;;;;;;;5.07;2.25;;;28.10;99.90;;;;;;5034352;28;20053;-49
2022/08/02 01:03:17;;;;;;;7.95;2.80;;;28.00;99.90;;;;;;5034046;28;20272;-49
2022/08/02 01:05:43;;;;;;;5.15;3.08;;;28.10;99.90;;;;;;5033982;28;20381;-49
2022/08/02 01:08:09;;;;;;;6.38;2.92;;;28.10;99.90;;;;;;5033875;28;20104;-49
2022/08/02 01:10:35;;;;;;;8.73;2.60;;;28.10;99.90;;;;;;5032496;28;20021;-49
2022/08/02 01:13:01;;;;;;;4.85;2.53;;;28.10;99.90;;;;;;5033735;28;20106;-49
2022/08/02 01:15:27;;;;;;;5.22;3.00;;;28.10;99.90;;;;;;5033682;28;20026;-49
2022/08/02 01:18:06;;;;;;;4.70;2.65;;;28.10;99.90;;;;;;5033575;28;20120;-49
2022/08/02 01:20:37;;;;;;;7.55;3.00;;;28.10;99.90;;;;;;5033670;28;20028;-49
2022/08/02 01:23:47;;;;;;;6.47;2.58;;;28.10;99.90;;;;;;5033457;28;20385;-49
2022/08/02 01:26:15;;;;;;;4.97;3.55;;;28.20;99.90;;;;;;5033641;28;20029;-49
2022/08/02 01:28:58;;;;;;;5.18;3.28;;;28.10;99.90;;;;;;5033404;28;20029;-49
2022/08/02 01:31:43;;;;;;;8.68;3.03;;;28.10;99.90;;;;;;5033616;28;20408;-49
2022/08/02 01:34:15;;;;;;;9.18;2.97;;;28.10;99.90;;;;;;5033431;28;20030;-49
2022/08/02 01:36:45;;;;;;;6.65;2.63;;;28.10;99.90;;;;;;5033387;28;20465;-49
2022/08/02 01:39:14;;;;;;;5.88;3.45;;;28.10;99.90;;;;;;5033271;28;20586;-49
2022/08/02 01:41:41;;;;;;;7.22;2.97;;;28.10;99.90;;;;;;5033185;28;20017;-49
2022/08/02 01:44:09;;;;;;;7.00;3.33;;;28.10;99.90;;;;;;5033147;28;20105;-49
2022/08/02 01:46:39;;;;;;;6.97;3.00;;;28.10;99.90;;;;;;5033187;28;20032;-49
2022/08/02 01:49:11;;;;;;;5.88;2.97;;;28.00;99.90;;;;;;5033145;28;20481;-49
2022/08/02 01:54:25;;;;;;;8.02;2.80;;;28.00;99.90;;;;;;5033203;28;20036;-49
2022/08/02 01:56:53;;;;;;;6.28;3.38;;;28.00;99.90;;;;;;5033250;28;20042;-49
2022/08/02 01:59:20;;;;;;;;;;;28.00;99.90;;;;;;5044179;23;20012;-50
2022/08/02 02:01:49;;;;;;;8.63;3.03;;;27.90;99.90;;;;;;4973807;28;19922;-50
2022/08/02 02:04:16;;;;;;;8.93;3.25;;;27.90;99.90;;;;;;4974113;28;20018;-49
2022/08/02 02:06:46;;;;;;;5.07;2.88;;;27.90;99.90;;;;;;4974082;28;20023;-49
2022/08/02 02:09:14;;;;;;;10.43;3.53;;;27.80;99.90;;;;;;4974433;28;20441;-49
2022/08/02 02:11:43;;;;;;;8.27;3.20;;;27.80;99.90;;;;;;4973494;28;20105;-50
2022/08/02 02:14:11;;;;;;;4.55;2.83;;;27.80;99.90;;;;;;4956865;28;20034;-49
2022/08/02 02:16:38;;;;;;;4.60;2.55;;;27.70;99.90;;;;;;4973817;28;20351;-50
2022/08/02 02:19:06;;;;;;;;;;;27.70;99.90;;;;;;4974435;28;20031;-49
2022/08/02 02:21:31;;;;;;;;;;;27.70;99.90;;;;;;4974170;28;19906;-50
2022/08/02 02:23:58;;;;;;;4.72;2.70;;;27.60;99.90;;;;;;4973857;28;20412;-49
2022/08/02 02:26:26;;;;;;;4.43;2.60;;;27.60;99.90;;;;;;4972624;28;20398;-49
2022/08/02 02:28:54;;;;;;;5.50;2.60;;;27.60;99.90;;;;;;4973801;28;20486;-50
2022/08/02 02:31:20;;;;;;;4.28;2.15;;;27.50;99.90;;;;;;4973733;28;20121;-50
2022/08/02 02:33:49;;;;;;;2.67;1.73;;;27.50;99.90;;;;;;4973487;28;20023;-50
2022/08/02 02:36:20;;;;;;;6.68;1.80;;;27.40;99.90;;;;;;4973590;28;20031;-48
2022/08/02 02:38:49;;;;;;;5.75;1.75;;;27.40;99.90;;;;;;4973589;28;20043;-49
2022/08/02 02:41:17;;;;;;;9.98;2.00;;;27.40;99.90;;;;;;4973261;28;20478;-49
2022/08/02 02:43:44;;;;;;;2.53;1.55;;;27.30;99.90;;;;;;4973277;28;20041;-49
2022/08/02 02:46:12;;;;;;;3.03;1.50;;;27.30;99.90;;;;;;4973323;28;20034;-49
2022/08/02 02:48:38;;;;;;;2.45;1.30;;;27.30;99.90;;;;;;4973336;28;20035;-49
2022/08/02 02:51:05;;;;;;;4.00;1.98;;;27.20;99.90;;;;;;4973106;28;20049;-49
2022/08/02 02:53:32;;;;;;;2.22;1.73;;;27.20;99.90;;;;;;4973242;28;20033;-49
2022/08/02 02:55:58;;;;;;;4.00;1.50;;;27.20;99.90;;;;;;4973145;28;20022;-49
2022/08/02 02:58:24;;;;;;;3.95;1.45;;;27.20;99.90;;;;;;4973206;28;20155;-49
2022/08/02 03:03:37;;;;;;;2.60;1.40;;;27.10;99.90;;;;;;4973235;28;20042;-50
2022/08/02 03:06:03;;;;;;;3.30;1.40;;;27.10;99.90;;;;;;4972948;28;20125;-49
2022/08/02 03:08:29;;;;;;;3.72;1.60;;;27.10;99.90;;;;;;4972880;28;20522;-50
2022/08/02 03:10:55;;;;;;;4.03;1.33;;;27.10;99.90;;;;;;4955894;28;20027;-49
2022/08/02 03:13:22;;;;;;;4.40;1.25;;;27.10;99.90;;;;;;4971648;28;20019;-48
2022/08/02 03:15:52;;;;;;;4.13;1.13;;;27.10;99.90;;;;;;4972839;28;20018;-49
2022/08/02 03:18:32;;;;;;;2.13;1.33;;;27.10;99.90;;;;;;4972847;28;20039;-49
2022/08/02 03:21:06;;;;;;;2.58;1.15;;;27.10;99.90;;;;;;4972806;28;20023;-49
2022/08/02 03:23:33;;;;;;;5.85;1.20;;;27.10;99.90;;;;;;4971925;28;20077;-49
2022/08/02 03:25:59;;;;;;;3.65;1.48;;;27.10;99.90;;;;;;4972692;28;20015;-49
2022/08/02 03:28:25;;;;;;;3.95;1.20;;;27.10;99.90;;;;;;4972712;28;20059;-49
2022/08/02 03:30:52;;;;;;;3.45;1.30;;;27.10;99.90;;;;;;4972809;28;20018;-48
2022/08/02 03:33:19;;;;;;;2.45;1.60;;;27.10;99.90;;;;;;4979792;28;20046;-49
2022/08/02 03:35:47;;;;;;;2.03;1.10;;;27.10;99.90;;;;;;4982662;28;20029;-49
2022/08/02 03:38:14;;;;;;;;;;;27.10;99.90;;;;;;4972142;28;20042;-49
2022/08/02 03:40:42;;;;;;;4.60;1.50;;;27.10;99.90;;;;;;4972719;28;19910;-49
2022/08/02 03:43:10;;;;;;;5.38;1.67;;;27.20;99.90;;;;;;4972455;28;20046;-49
2022/08/02 03:45:38;;;;;;;1.30;1.20;;;27.20;99.90;;;;;;4972457;28;20035;-49
2022/08/02 03:48:04;;;;;;;2.22;1.25;;;27.30;99.90;;;;;;4971240;28;20030;-49
2022/08/02 03:50:32;;;;;;;4.85;1.48;;;27.30;99.90;;;;;;4971981;28;20023;-49
2022/08/02 03:52:58;;;;;;;2.55;1.30;;;27.40;99.90;;;;;;4972164;28;20023;-50
2022/08/02 03:55:24;;;;;;;2.50;1.63;;;27.50;99.90;;;;;;4971580;28;20482;-50
2022/08/02 03:57:50;;;;;;;2.35;1.30;;;27.50;99.90;;;;;;4972361;28;20121;-50
2022/08/02 04:00:21;;;;;;;3.65;1.35;;;27.60;99.90;;;;;;4972851;28;20494;-49
2022/08/02 04:02:47;;;;;;;3.58;1.23;;;27.70;99.90;;;;;;4972924;28;20081;-49
2022/08/02 04:05:14;;;;;;;4.55;1.42;;;27.70;99.90;;;;;;4971180;28;20497;-49
2022/08/02 04:07:42;;;;;;;3.85;1.00;;;27.70;99.90;;;;;;4987394;28;20058;-49
2022/08/02 04:10:08;;;;;;;;;;;27.80;99.90;;;;;;4972856;28;20039;-49
2022/08/02 04:12:34;;;;;;;3.33;1.90;;;27.80;99.90;;;;;;4972310;28;19934;-49
2022/08/02 04:15:03;;;;;;;1.67;1.15;;;27.90;99.90;;;;;;4972234;28;20022;-49
2022/08/02 04:17:32;;;;;;;1.58;1.20;;;27.90;99.90;;;;;;4972243;28;20035;-49
2022/08/02 04:20:10;;;;;;;4.68;1.50;;;27.90;99.90;;;;;;4972208;28;20019;-48
2022/08/02 04:22:44;;;;;;;4.88;1.50;;;27.90;99.90;;;;;;4972194;28;20023;-48
2022/08/02 04:25:10;;;;;;;2.72;1.20;;;28.00;99.90;;;;;;4972073;28;20410;-48
2022/08/02 04:27:38;;;;;;;3.95;1.10;;;28.00;99.90;;;;;;4972065;28;20382;-49
2022/08/02 04:30:06;;;;;;;2.40;1.50;;;28.00;99.90;;;;;;4972202;28;20031;-49
2022/08/02 04:32:32;;;;;;;3.80;1.48;;;28.00;99.90;;;;;;4972084;28;20038;-49
2022/08/02 04:34:59;;;;;;;5.05;1.73;;;28.00;99.90;;;;;;4973308;28;20022;-49
2022/08/02 04:37:25;;;;;;;4.68;1.52;;;28.00;99.90;;;;;;4975739;28;20034;-49
2022/08/02 04:39:51;;;;;;;2.20;1.20;;;28.10;99.90;;;;;;4975538;28;20528;-49
2022/08/02 04:42:25;;;;;;;3.58;1.45;;;28.10;99.90;;;;;;4975846;28;20728;-49
2022/08/02 04:44:51;;;;;;;3.60;1.63;;;28.10;99.90;;;;;;4975502;28;20039;-49
2022/08/02 04:47:18;;;;;;;7.85;1.60;;;28.10;99.90;;;;;;4975738;28;20055;-49
2022/08/02 04:49:44;;;;;;;5.70;1.80;;;28.10;99.90;;;;;;4975617;28;20026;-49
2022/08/02 04:52:10;;;;;;;4.10;1.67;;;28.20;99.90;;;;;;4975365;28;20034;-49
2022/08/02 04:54:35;;;;;;;5.68;1.88;;;28.20;99.90;;;;;;4975419;28;20048;-50
2022/08/02 04:57:53;;;;;;;11.07;3.42;;;28.20;99.90;;;;;;4975240;28;20042;-49
2022/08/02 04:59:47;;;;;;;9.15;3.45;;;28.30;99.90;;;;;;4975179;28;20061;-48
2022/08/02 05:02:13;;;;;;;11.50;3.10;;;28.30;99.90;;;;;;4990153;28;20052;-49
2022/08/02 05:04:38;;;;;;;8.20;3.15;;;28.30;99.90;;;;;;4975039;28;20310;-49
2022/08/02 05:07:04;;;;;;;4.57;2.47;;;28.30;99.90;;;;;;4990026;28;20031;-48
2022/08/02 05:09:30;;;;;;;8.25;2.22;;;28.30;99.90;;;;;;4975074;28;20479;-48
2022/08/02 05:11:55;;;;;;;3.58;1.85;;;28.30;99.90;;;;;;4975110;28;20037;-49
2022/08/02 05:14:22;;;;;;;5.72;2.10;;;28.30;99.90;;;;;;4974910;28;20038;-49
2022/08/02 05:16:47;;;;;;;6.88;2.25;;;28.30;99.90;;;;;;4974980;28;20023;-50
2022/08/02 05:19:13;;;;;;;5.90;2.85;;;28.30;99.90;;;;;;4974779;28;20110;-50
2022/08/02 05:21:39;;;;;;;3.33;2.08;;;28.30;99.90;;;;;;4974876;28;20990;-50
2022/08/02 05:24:05;;;;;;;4.80;2.38;;;28.30;99.90;;;;;;4974790;28;20049;-49
2022/08/02 05:26:31;;;;;;;4.07;1.60;;;28.30;99.90;;;;;;4974833;28;20479;-49
2022/08/02 05:28:56;;;;;;;5.53;1.77;;;28.40;99.90;;;;;;4974760;28;20042;-49
2022/08/02 05:31:22;;;;;;;2.85;1.85;;;28.30;99.90;;;;;;4974737;28;20030;-49
2022/08/02 05:33:48;;;;;;;7.10;1.92;;;28.40;99.90;;;;;;4957482;28;20709;-49
2022/08/02 05:36:14;;;;;;;7.97;2.13;;;28.40;99.90;;;;;;4974670;28;20031;-49
2022/08/02 05:38:40;;;;;;;4.57;1.80;;;28.40;99.90;;;;;;4974505;28;20043;-48
2022/08/02 05:41:06;;;;;;;3.63;1.92;;;28.40;99.90;;;;;;4974576;28;20023;-49
2022/08/02 05:43:31;;;;;;;2.53;1.75;;;28.40;99.90;;;;;;4974399;28;20033;-49
2022/08/02 05:45:57;;;;;;;3.40;1.85;;;28.40;99.90;;;;;;4973733;28;20114;-49
2022/08/02 05:48:23;;;;;;;4.65;2.05;;;28.40;99.90;;;;;;4974012;28;20025;-49
2022/08/02 05:50:54;;;;;;;5.95;1.80;;;28.50;99.90;;;;;;4974660;28;20435;-49
2022/08/02 05:53:34;;;;;;;4.93;1.73;;;28.40;99.90;;;;;;4974391;28;20121;-49
2022/08/02 05:56:22;;;;;;;7.05;1.65;;;28.50;99.90;;;;;;4974115;28;20106;-50
2022/08/02 05:58:56;;;;;;;8.30;2.45;;;28.50;99.90;;;;;;4974309;28;20035;-50
2022/08/02 06:01:37;;;;;;;4.57;2.03;;;28.50;99.90;;;;;;4973898;28;20054;-49
2022/08/02 06:04:08;;;;;;;5.00;1.80;;;28.50;99.90;;;;;;4973937;28;20041;-50
2022/08/02 06:06:35;;;;;;;4.03;2.15;;;28.60;99.90;;;;;;4974019;28;20037;-48
2022/08/02 06:09:08;;;;;;;4.28;2.22;;;28.60;99.90;;;;;;4974145;28;20034;-49
2022/08/02 06:11:41;;;;;;;4.78;2.42;;;28.60;99.90;;;;;;4974035;28;20475;-49
2022/08/02 06:14:11;;;;;;;5.60;2.33;;;28.60;99.90;;;;;;4973772;28;20031;-49
2022/08/02 06:16:38;;;;;;;4.93;2.00;;;28.60;99.90;;;;;;4973547;28;20015;-48
2022/08/02 06:19:05;;;;;;;4.88;2.42;;;28.70;99.90;;;;;;4988337;28;20087;-50
2022/08/02 06:21:32;;;;;;;18.23;3.03;;;28.70;99.90;;;;;;4973743;28;20018;-49
2022/08/02 06:23:58;;;;;;;5.35;2.42;;;28.70;99.90;;;;;;4973551;28;20113;-49
2022/08/02 06:26:27;;;;;;;6.55;2.13;;;28.70;99.90;;;;;;4973752;28;20050;-49
2022/08/02 06:28:55;;;;;;;3.42;2.00;;;28.70;99.90;;;;;;4973647;28;20027;-49
2022/08/02 06:31:22;;;;;;;6.40;1.70;;;28.70;99.90;;;;;;4988653;28;20029;-49
2022/08/02 06:33:47;;;;;;;10.93;2.10;;;28.70;99.90;;;;;;4973416;28;20110;-49
2022/08/02 06:36:41;;;;;;;9.38;2.05;;;28.70;99.90;;;;;;4988512;28;20101;-50
2022/08/02 06:39:15;;;;;;;6.05;2.10;;;28.70;99.90;;;;;;4973325;28;20031;-49
2022/08/02 06:41:43;;;;;;;7.78;2.80;;;28.70;99.90;;;;;;4973205;28;20474;-50
2022/08/02 06:44:09;;;;;;;7.82;3.83;;;28.70;99.90;;;;;;4956054;28;20027;-49
2022/08/02 06:46:36;;;;;;;9.53;2.50;;;28.80;99.90;;;;;;4955923;28;20117;-50
2022/08/02 06:49:02;;;;;;;4.85;2.92;;;28.80;99.90;;;;;;4988077;28;20063;-49
2022/08/02 06:51:28;;;;;;;5.38;2.55;;;28.80;99.90;;;;;;4973134;28;20031;-48
2022/08/02 06:53:54;;;;;;;9.55;2.42;;;28.80;99.90;;;;;;4973275;28;20026;-49
2022/08/02 06:56:20;;;;;;;7.00;2.17;;;28.80;99.90;;;;;;4973288;28;20085;-49
2022/08/02 06:58:46;;;;;;;18.55;3.95;;;28.80;99.90;;;;;;4972822;28;20035;-49
2022/08/02 07:01:12;;;;;;;11.40;3.13;;;28.80;99.90;;;;;;4972798;28;20134;-49
2022/08/02 07:03:39;;;;;;;7.50;2.45;;;28.70;99.90;;;;;;4972824;28;20023;-49
2022/08/02 07:06:09;;;;;;;12.98;3.10;;;28.80;99.90;;;;;;4973065;28;20074;-49
2022/08/02 07:08:37;;;;;;;8.32;3.15;;;28.70;99.90;;;;;;4972789;28;20117;-49
2022/08/02 07:11:03;;;;;;;;;;;28.70;99.90;;;;;;4973378;28;20030;-49
2022/08/02 07:13:29;;;;;;;11.07;3.30;;;28.70;99.90;;;;;;4972939;28;19929;-49
2022/08/02 07:15:55;;;;;;;17.58;3.92;;;28.70;99.90;;;;;;4972868;28;20027;-48
2022/08/02 07:18:23;;;;;;;6.63;2.85;;;28.60;99.90;;;;;;4972773;28;20039;-48
2022/08/02 07:20:49;;;;;;;8.98;2.97;;;28.60;99.90;;;;;;4972609;28;20027;-48
2022/08/02 07:23:15;;;;;;;4.82;2.55;;;28.60;99.90;;;;;;4972503;28;20038;-48
2022/08/02 07:25:42;;;;;;;9.73;2.67;;;28.60;99.90;;;;;;4972678;28;20015;-48
2022/08/02 07:28:11;;;;;;;8.50;2.63;;;28.60;99.90;;;;;;4972497;28;20063;-48
2022/08/02 07:30:37;;;;;;;8.75;2.65;;;28.60;99.90;;;;;;4972595;28;20015;-49
2022/08/02 07:33:04;;;;;;;7.82;2.60;;;28.60;99.90;;;;;;4972314;28;20027;-48
2022/08/02 07:35:30;;;;;;;4.00;2.45;;;28.60;99.90;;;;;;4972599;28;20022;-48
2022/08/02 07:37:56;;;;;;;8.18;2.40;;;28.60;99.90;;;;;;4972491;28;20447;-48
2022/08/02 07:40:22;;;;;;;5.50;2.50;;;28.60;99.90;;;;;;4972526;28;20073;-49
2022/08/02 07:42:53;;;;;;;6.17;2.63;;;28.50;99.90;;;;;;4972466;28;20023;-48
2022/08/02 07:45:20;;;;;;;6.75;3.40;;;28.60;99.90;;;;;;4972236;28;20443;-49
2022/08/02 07:47:46;;;;;;;8.55;2.83;;;28.60;99.90;;;;;;4972325;28;20041;-48
2022/08/02 07:50:14;;;;;;;7.45;2.70;;;28.60;99.90;;;;;;4972520;28;20027;-49
2022/08/02 07:52:41;;;;;;;8.00;2.80;;;28.60;99.90;;;;;;4972218;28;20031;-49
2022/08/02 07:55:08;;;;;;;5.95;2.60;;;28.60;99.90;;;;;;4972205;28;20473;-50
2022/08/02 07:57:34;;;;;;;7.35;2.80;;;28.70;99.90;;;;;;4972191;28;20035;-49
2022/08/02 08:00:00;;;;;;;9.10;3.05;;;28.70;99.90;;;;;;4972147;28;20470;-49
2022/08/02 08:02:26;;;;;;;7.45;2.72;;;28.70;99.90;;;;;;4972354;28;20098;-49
2022/08/02 08:04:52;;;;;;;4.78;2.80;;;28.70;99.90;;;;;;4972008;28;20402;-50
2022/08/02 08:07:19;;;;;;;8.00;2.70;;;28.70;99.90;;;;;;4954740;28;20521;-49
2022/08/02 08:09:46;;;;;;;8.15;3.20;;;28.70;99.90;;;;;;4972957;28;20049;-49
2022/08/02 08:12:12;;;;;;;3.22;2.28;;;28.80;99.90;;;;;;4975906;28;20031;-48
2022/08/02 08:14:38;;;;;;;7.47;2.70;;;28.70;99.90;;;;;;4958800;28;20081;-50
2022/08/02 08:17:05;;;;;;;7.13;2.80;;;28.80;99.90;;;;;;4975964;28;20497;-50
2022/08/02 08:19:31;;;;;;;7.95;2.92;;;28.80;99.90;;;;;;4976063;28;20483;-48
2022/08/02 08:21:59;;;;;;;7.28;3.00;;;28.70;99.90;;;;;;4976089;28;20027;-49
2022/08/02 08:24:26;;;;;;;6.65;2.80;;;28.70;99.90;;;;;;4976117;28;20105;-49
2022/08/02 08:26:52;;;;;;;5.10;3.05;;;28.80;99.90;;;;;;4990827;28;20029;-49
2022/08/02 08:29:18;;;;;;;6.63;2.50;;;28.80;99.90;;;;;;4975826;28;20059;-53
2022/08/02 08:31:44;;;;;;;6.43;2.60;;;28.80;99.90;;;;;;4975731;28;20105;-50
2022/08/02 08:34:10;;;;;;;5.45;2.53;;;28.80;99.90;;;;;;4975665;28;20034;-49
2022/08/02 08:36:36;;;;;;;7.18;2.35;;;28.80;99.90;;;;;;4975551;28;20027;-49
2022/08/02 08:39:03;;;;;;;6.80;2.40;;;28.80;99.90;;;;;;4975440;28;20066;-50
2022/08/02 08:41:29;;;;;;;5.95;2.50;;;28.90;99.90;;;;;;4975564;28;20031;-49
2022/08/02 08:43:55;;;;;;;13.38;2.90;;;28.90;99.90;;;;;;4975321;28;20029;-49
2022/08/02 08:46:27;;;;;;;3.83;2.65;;;28.90;99.90;;;;;;4975435;28;20398;-50
2022/08/02 08:48:59;;;;;;;5.68;3.15;;;28.90;99.90;;;;;;4975445;28;20023;-49
2022/08/02 08:51:29;;;;;;;6.13;2.90;;;28.90;99.90;;;;;;4975270;28;20034;-49
2022/08/02 08:53:58;;;;;;;4.35;2.55;;;29.00;99.90;;;;;;4975337;28;20030;-49
2022/08/02 08:56:31;;;;;;;6.38;2.70;;;28.90;99.90;;;;;;4975211;28;20117;-49
2022/08/02 08:58:57;;;;;;;4.35;2.28;;;29.00;99.90;;;;;;4975212;28;20039;-49
2022/08/02 09:01:23;;;;;;;11.18;2.53;;;29.00;99.90;;;;;;4975250;28;20050;-49
2022/08/02 09:03:49;;;;;;;5.70;2.97;;;29.00;99.90;;;;;;4974972;28;20023;-49
2022/08/02 09:06:15;;;;;;;8.15;2.60;;;29.00;99.90;;;;;;4974960;28;20489;-49
2022/08/02 09:08:40;;;;;;;12.00;2.70;;;29.10;99.90;;;;;;4957604;28;20027;-49
2022/08/02 09:11:17;;;;;;;5.15;3.03;;;29.10;99.90;;;;;;4974902;28;20027;-49
2022/08/02 09:13:52;;;;;;;5.93;3.20;;;29.10;99.90;;;;;;4974993;28;20033;-49
2022/08/02 09:16:39;;;;;;;5.20;3.05;;;29.10;99.90;;;;;;4974763;28;20459;-49
2022/08/02 09:19:25;;;;;;;9.65;3.38;;;29.10;99.90;;;;;;4957544;28;20045;-50
2022/08/02 09:22:06;;;;;;;11.07;3.70;;;29.10;99.90;;;;;;4988341;28;20031;-49
2022/08/02 09:24:48;;;;;;;10.88;3.55;;;29.20;99.90;;;;;;4974858;28;20030;-50
2022/08/02 09:27:20;;;;;;;9.93;3.08;;;29.20;99.90;;;;;;4974673;28;20051;-49
2022/08/02 09:29:48;;;;;;;6.93;3.13;;;29.10;99.90;;;;;;4974567;28;20113;-50
2022/08/02 09:32:16;;;;;;;5.03;3.10;;;29.10;99.90;;;;;;4974739;28;20046;-49
2022/08/02 09:34:49;;;;;;;8.38;2.55;;;29.10;99.90;;;;;;4974445;28;20114;-48
2022/08/02 09:37:27;;;;;;;18.40;5.38;;;29.10;99.90;;;;;;4974421;28;20501;-48
2022/08/02 09:39:53;;;;;;;9.82;3.50;;;29.20;99.90;;;;;;4974307;28;20045;-49
2022/08/02 09:42:19;;;;;;;7.97;3.10;;;29.20;99.90;;;;;;4974365;28;20022;-49
2022/08/02 09:45:01;;;;;;;8.02;3.42;;;29.20;99.90;;;;;;4974253;28;20039;-48
2022/08/02 09:47:28;;;;;;;12.35;3.33;;;29.20;99.90;;;;;;4974313;28;20035;-50
2022/08/02 09:49:55;;;;;;;11.05;4.28;;;29.20;99.90;;;;;;4974095;28;20036;-49
2022/08/02 09:52:25;;;;;;;;;;;29.30;99.90;;;;;;4974457;28;20037;-49
2022/08/02 09:54:51;;;;;;;13.35;7.97;;;29.30;99.90;;;;;;4974170;28;19996;-49
2022/08/02 09:57:27;;;;;;;12.13;3.85;;;29.30;99.90;;;;;;4974132;28;20077;-50
2022/08/02 09:59:54;;;;;;;6.53;3.38;;;29.40;99.90;;;;;;4973883;28;20125;-49
2022/08/02 10:02:20;;;;;;;6.28;2.72;;;29.40;99.90;;;;;;4974026;28;20073;-50
2022/08/02 10:04:46;;;;;;;7.53;3.58;;;29.40;99.90;;;;;;4974136;28;20031;-49
2022/08/02 10:07:12;;;;;;;6.68;3.03;;;29.40;99.90;;;;;;4973963;28;20027;-49
2022/08/02 10:09:38;;;;;;;5.90;2.47;;;29.50;99.90;;;;;;4973728;28;20376;-49
2022/08/02 10:12:05;;;;;;;5.57;3.00;;;29.50;99.90;;;;;;4973870;28;20029;-49
2022/08/02 10:14:36;;;;;;;5.03;2.80;;;29.50;99.90;;;;;;4973963;28;20031;-49
2022/08/02 10:17:04;;;;;;;3.05;2.08;;;29.50;99.90;;;;;;4973825;28;20027;-49
2022/08/02 10:19:30;;;;;;;4.47;2.47;;;29.50;99.90;;;;;;4973575;28;20119;-49
2022/08/02 10:22:02;;;;;;;10.90;3.60;;;29.50;99.90;;;;;;4973553;28;20023;-49
2022/08/02 10:24:31;;;;;;;5.53;2.30;;;29.50;99.90;;;;;;4973432;28;20433;-49
2022/08/02 10:26:58;;;;;;;4.70;1.55;;;29.60;99.90;;;;;;4973618;28;20057;-49
2022/08/02 10:29:36;;;;;;;3.85;1.85;;;29.60;99.90;;;;;;4973569;28;20049;-49
2022/08/02 10:32:05;;;;;;;3.15;1.92;;;29.60;99.90;;;;;;4973359;28;20057;-56
2022/08/02 10:34:40;;;;;;;8.52;2.47;;;29.70;99.90;;;;;;4973247;28;20031;-49
2022/08/02 10:37:08;;;;;;;4.00;1.80;;;29.70;99.90;;;;;;4973316;28;20466;-49
2022/08/02 10:39:41;;;;;;;4.72;2.03;;;29.70;99.90;;;;;;4973330;28;20125;-49
2022/08/02 10:42:07;;;;;;;3.60;2.30;;;29.80;99.90;;;;;;4973142;28;20113;-49
2022/08/02 10:44:34;;;;;;;2.58;1.67;;;29.80;99.90;;;;;;4973339;28;20057;-49
2022/08/02 10:47:21;;;;;;;3.00;1.25;;;29.80;99.90;;;;;;4973073;28;20035;-49
2022/08/02 10:49:58;;;;;;;3.22;1.35;;;29.80;99.90;;;;;;4973104;28;20047;-49
2022/08/02 10:52:28;;;;;;;3.38;1.70;;;29.80;99.90;;;;;;4973037;28;20023;-49
2022/08/02 10:55:02;;;;;;;4.47;1.83;;;29.80;99.90;;;;;;4973028;28;20031;-49
2022/08/02 10:57:32;;;;;;;4.22;1.63;;;29.90;99.90;;;;;;4987803;28;20158;-49
2022/08/02 11:00:25;;;;;;;3.97;1.70;;;30.00;99.90;;;;;;4972799;28;20104;-49
2022/08/02 11:02:52;;;;;;;5.15;2.58;;;30.00;99.90;;;;;;4972823;28;20035;-48
2022/08/02 11:05:30;;;;;;;3.78;1.95;;;30.00;99.90;;;;;;4972537;28;20027;-49
2022/08/02 11:07:56;;;;;;;5.22;1.70;;;30.10;99.90;;;;;;4972518;28;20042;-49
2022/08/02 11:10:42;;;;;;;2.45;1.77;;;30.10;99.90;;;;;;4972648;28;20023;-49
2022/08/02 11:13:20;;;;;;;3.70;2.08;;;30.10;99.90;;;;;;4972671;28;20062;-49
2022/08/02 11:16:01;;;;;;;6.88;1.67;;;30.10;99.90;;;;;;4972627;28;20019;-49
2022/08/02 11:18:45;;;;;;;4.25;1.90;;;30.20;99.90;;;;;;4972330;28;20050;-48
2022/08/02 11:21:24;;;;;;;2.10;1.33;;;30.20;99.90;;;;;;4972201;28;20030;-54
2022/08/02 11:23:51;;;;;;;2.92;1.85;;;30.30;99.90;;;;;;4972262;28;20019;-49
2022/08/02 11:26:32;;;;;;;2.08;1.33;;;30.20;99.90;;;;;;4972480;28;20019;-49
2022/08/02 11:29:03;;;;;;;2.38;1.63;;;30.30;99.90;;;;;;4972289;28;20031;-49
2022/08/02 11:31:36;;;;;;;3.03;1.52;;;30.30;99.90;;;;;;4972433;28;20018;-49
2022/08/02 11:34:04;;;;;;;2.30;1.20;;;30.30;99.90;;;;;;4972181;28;20089;-49
2022/08/02 11:36:30;;;;;;;;;;;30.30;99.90;;;;;;4972722;28;20038;-49
2022/08/02 11:39:16;;;;;;;5.43;1.67;;;30.30;99.90;;;;;;4972332;28;19914;-49
2022/08/02 11:41:47;;;;;;;4.57;1.73;;;30.30;99.90;;;;;;4972314;28;20398;-49
2022/08/02 11:44:13;;;;;;;6.35;2.20;;;30.30;99.90;;;;;;4971458;28;20027;-49
2022/08/02 11:46:39;;;;;;;6.22;2.80;;;30.40;99.90;;;;;;4972301;28;20034;-49
2022/08/02 11:49:16;;;;;;;6.22;1.67;;;30.40;99.90;;;;;;4972372;28;20030;-48
2022/08/02 11:51:51;;;;;;;;;;;30.40;99.90;;;;;;4972424;28;20031;-49
2022/08/02 11:54:29;;;;;;;2.13;1.48;;;30.50;99.90;;;;;;4972271;28;19960;-49
2022/08/02 11:57:10;;;;;;;5.57;1.52;;;30.40;99.90;;;;;;4971291;28;20101;-47
2022/08/02 11:59:38;;;;;;;2.75;1.50;;;30.50;99.90;;;;;;4979053;28;20042;-48
2022/08/02 12:02:05;;;;;;;;;;;30.50;99.90;;;;;;4980446;28;20027;-49
2022/08/02 12:04:30;;;;;;;3.28;1.50;;;30.50;99.90;;;;;;4980893;28;19920;-49
2022/08/02 12:06:59;;;;;;;3.15;1.45;;;30.50;99.90;;;;;;4969818;28;20101;-49
2022/08/02 12:09:27;;;;;;;3.20;1.60;;;30.50;99.90;;;;;;4968211;28;20035;-49
2022/08/02 12:11:54;;;;;;;2.22;1.30;;;30.60;99.90;;;;;;4966997;28;20054;-49
2022/08/02 12:14:20;;;;;;;2.65;1.40;;;30.60;99.90;;;;;;4971386;28;20386;-49
2022/08/02 12:19:32;;;;;;;3.30;0.90;;;30.60;99.90;;;;;;4970829;28;20130;-49
2022/08/02 12:22:08;;;;;;;3.80;1.10;;;30.60;99.90;;;;;;4954669;28;20394;-49
2022/08/02 12:24:35;;;;;;;3.90;1.10;;;30.60;99.90;;;;;;4970524;28;20368;-48
2022/08/02 12:27:01;;;;;;;1.67;1.00;;;30.60;99.90;;;;;;4971353;28;20355;-49
2022/08/02 12:29:32;;;;;;;2.38;1.10;;;30.60;99.90;;;;;;4971716;28;20343;-49
2022/08/02 12:31:58;;;;;;;4.47;1.10;;;30.60;99.90;;;;;;4971773;28;20031;-48
2022/08/02 12:34:25;;;;;;;2.55;1.42;;;30.70;99.90;;;;;;4971930;28;20429;-49
2022/08/02 12:36:57;;;;;;;6.63;1.58;;;30.60;99.90;;;;;;4970704;28;20019;-49
2022/08/02 12:39:37;;;;;;;4.72;0.90;;;30.70;99.90;;;;;;4970829;28;20042;-49
2022/08/02 12:42:05;;;;;;;2.83;0.80;;;30.70;99.90;;;;;;4971982;28;20034;-49
2022/08/02 12:44:31;;;;;;;3.10;0.77;;;30.70;99.90;;;;;;4982468;28;20149;-49
2022/08/02 12:47:08;;;;;;;4.70;1.10;;;30.80;99.90;;;;;;4971167;28;20102;-49
2022/08/02 12:49:35;;;;;;;1.35;0.85;;;30.80;99.90;;;;;;4971084;28;20096;-50
2022/08/02 12:52:00;;;;;;;6.53;2.73;;;30.90;99.90;;;;;;4967915;28;20102;-49
2022/08/02 12:54:31;;;;;;;5.35;1.33;;;30.90;99.90;;;;;;4970135;28;20113;-49
2022/08/02 12:57:08;;;;;;;6.65;3.42;;;31.00;99.90;;;;;;4972981;28;20102;-49
2022/08/02 12:59:37;;;;;;;4.25;1.67;;;31.10;99.90;;;;;;4971301;28;20510;-48
2022/08/02 13:02:09;;;;;;;3.35;1.48;;;31.10;99.90;;;;;;4974953;28;20027;-49
2022/08/02 13:04:35;;;;;;;2.30;1.10;;;31.10;99.90;;;;;;4973727;28;20422;-49
2022/08/02 13:07:02;;;;;;;3.95;1.58;;;31.20;99.90;;;;;;4973062;28;20015;-49